sensor_id;sensor_type;location;lat;lon;timestamp;pressure;altitude;pressure_sealevel;temperature;humidity
59170;BME280;52474;52.236;5.114;2023-04-02T00:01:22;101328.81;;;5.45;100.00
59170;BME280;52474;52.236;5.114;2023-04-02T00:11:41;101369.72;;;5.49;100.00
59170;BME280;52474;52.236;5.114;2023-04-02T00:16:47;101364.31;;;5.52;100.00
59170;BME280;52474;52.236;5.114;2023-04-02T00:19:37;101372.00;;;5.55;100.00
59170;BME280;52474;52.236;5.114;2023-04-02T00:22:08;101374.06;;;5.50;100.00
59170;BME280;52474;52.236;5.114;2023-04-02T00:24:38;101377.78;;;5.46;100.00
59170;BME280;52474;52.236;5.114;2023-04-02T00:27:08;101354.16;;;5.30;100.00
59170;BME280;52474;52.236;5.114;2023-04-02T00:29:34;101369.06;;;5.29;100.00
59170;BME280;52474;52.236;5.114;2023-04-02T00:32:00;101393.03;;;5.39;100.00
59170;BME280;52474;52.236;5.114;2023-04-02T00:34:30;101382.19;;;5.29;100.00
59170;BME280;52474;52.236;5.114;2023-04-02T00:36:57;101394.72;;;5.40;100.00
59170;BME280;52474;52.236;5.114;2023-04-02T00:39:33;101358.53;;;5.13;100.00
59170;BME280;52474;52.236;5.114;2023-04-02T00:42:05;101401.31;;;5.31;100.00
59170;BME280;52474;52.236;5.114;2023-04-02T00:44:33;101406.75;;;5.28;100.00
59170;BME280;52474;52.236;5.114;2023-04-02T00:47:10;101419.63;;;5.33;100.00
59170;BME280;52474;52.236;5.114;2023-04-02T00:49:39;101421.47;;;5.31;100.00
59170;BME280;52474;52.236;5.114;2023-04-02T00:52:11;101424.94;;;5.31;100.00
59170;BME280;52474;52.236;5.114;2023-04-02T00:57:24;101413.59;;;5.15;100.00
59170;BME280;52474;52.236;5.114;2023-04-02T01:00:00;101442.13;;;5.21;100.00
59170;BME280;52474;52.236;5.114;2023-04-02T01:02:33;101414.91;;;5.06;100.00
59170;BME280;52474;52.236;5.114;2023-04-02T01:05:21;101443.91;;;5.21;100.00
59170;BME280;52474;52.236;5.114;2023-04-02T01:21:28;101466.66;;;5.04;100.00
59170;BME280;52474;52.236;5.114;2023-04-02T01:24:03;101470.16;;;5.05;100.00
59170;BME280;52474;52.236;5.114;2023-04-02T01:29:29;101476.31;;;5.04;100.00
59170;BME280;52474;52.236;5.114;2023-04-02T01:32:03;101449.25;;;4.86;100.00
59170;BME280;52474;52.236;5.114;2023-04-02T01:34:30;101474.63;;;5.03;100.00
59170;BME280;52474;52.236;5.114;2023-04-02T01:37:03;101487.16;;;4.98;100.00
59170;BME280;52474;52.236;5.114;2023-04-02T01:42:23;101484.75;;;4.93;100.00
59170;BME280;52474;52.236;5.114;2023-04-02T01:44:52;101504.75;;;4.95;100.00
59170;BME280;52474;52.236;5.114;2023-04-02T01:47:22;101499.56;;;4.94;100.00
59170;BME280;52474;52.236;5.114;2023-04-02T01:50:03;101488.31;;;4.74;100.00
59170;BME280;52474;52.236;5.114;2023-04-02T01:52:40;101515.53;;;4.89;100.00
59170;BME280;52474;52.236;5.114;2023-04-02T01:55:12;101534.78;;;4.90;100.00
59170;BME280;52474;52.236;5.114;2023-04-02T01:57:44;101533.28;;;4.84;100.00
59170;BME280;52474;52.236;5.114;2023-04-02T02:00:13;101533.91;;;4.72;100.00
59170;BME280;52474;52.236;5.114;2023-04-02T02:02:40;101534.69;;;4.74;100.00
59170;BME280;52474;52.236;5.114;2023-04-02T02:05:17;101514.75;;;4.52;100.00
59170;BME280;52474;52.236;5.114;2023-04-02T02:07:46;101515.84;;;4.48;100.00
59170;BME280;52474;52.236;5.114;2023-04-02T02:10:17;101498.16;;;4.35;100.00
59170;BME280;52474;52.236;5.114;2023-04-02T02:12:46;101544.38;;;4.55;100.00
59170;BME280;52474;52.236;5.114;2023-04-02T02:15:18;101541.16;;;4.49;100.00
59170;BME280;52474;52.236;5.114;2023-04-02T02:17:44;101556.50;;;4.57;100.00
59170;BME280;52474;52.236;5.114;2023-04-02T02:20:11;101556.97;;;4.48;100.00
59170;BME280;52474;52.236;5.114;2023-04-02T02:22:42;101560.34;;;4.50;100.00
59170;BME280;52474;52.236;5.114;2023-04-02T02:25:18;101569.31;;;4.46;100.00
59170;BME280;52474;52.236;5.114;2023-04-02T02:35:35;101560.47;;;4.29;100.00
59170;BME280;52474;52.236;5.114;2023-04-02T02:38:33;101600.06;;;4.42;100.00
59170;BME280;52474;52.236;5.114;2023-04-02T02:46:34;101614.03;;;4.43;100.00
59170;BME280;52474;52.236;5.114;2023-04-02T02:49:06;101611.66;;;4.38;100.00
59170;BME280;52474;52.236;5.114;2023-04-02T02:51:59;101618.50;;;4.41;100.00
59170;BME280;52474;52.236;5.114;2023-04-02T02:54:35;101616.09;;;4.36;100.00
59170;BME280;52474;52.236;5.114;2023-04-02T02:57:06;101627.00;;;4.27;100.00
59170;BME280;52474;52.236;5.114;2023-04-02T02:59:35;101636.66;;;4.26;100.00
59170;BME280;52474;52.236;5.114;2023-04-02T03:02:02;101628.84;;;4.25;100.00
59170;BME280;52474;52.236;5.114;2023-04-02T03:04:30;101642.75;;;4.27;100.00
59170;BME280;52474;52.236;5.114;2023-04-02T03:07:01;101635.03;;;4.24;100.00
59170;BME280;52474;52.236;5.114;2023-04-02T03:09:34;101641.31;;;4.20;100.00
59170;BME280;52474;52.236;5.114;2023-04-02T03:14:44;101640.69;;;4.15;100.00
59170;BME280;52474;52.236;5.114;2023-04-02T03:20:47;101663.34;;;4.16;100.00
59170;BME280;52474;52.236;5.114;2023-04-02T03:25:55;101681.16;;;4.09;100.00
59170;BME280;52474;52.236;5.114;2023-04-02T03:28:31;101679.56;;;4.05;100.00
59170;BME280;52474;52.236;5.114;2023-04-02T03:31:08;101694.31;;;4.07;100.00
59170;BME280;52474;52.236;5.114;2023-04-02T03:33:43;101694.06;;;3.93;100.00
59170;BME280;52474;52.236;5.114;2023-04-02T03:36:21;101707.03;;;3.96;100.00
59170;BME280;52474;52.236;5.114;2023-04-02T03:39:17;101703.09;;;3.86;100.00
59170;BME280;52474;52.236;5.114;2023-04-02T03:41:46;101718.44;;;3.95;100.00
59170;BME280;52474;52.236;5.114;2023-04-02T03:44:37;101717.72;;;3.92;100.00
59170;BME280;52474;52.236;5.114;2023-04-02T03:47:13;101719.56;;;3.90;100.00
59170;BME280;52474;52.236;5.114;2023-04-02T03:49:43;101735.44;;;3.86;100.00
59170;BME280;52474;52.236;5.114;2023-04-02T03:52:16;101740.88;;;3.82;100.00
59170;BME280;52474;52.236;5.114;2023-04-02T03:54:44;101724.94;;;3.66;100.00
59170;BME280;52474;52.236;5.114;2023-04-02T03:57:33;101754.03;;;3.80;100.00
59170;BME280;52474;52.236;5.114;2023-04-02T04:02:44;101765.63;;;3.75;100.00
59170;BME280;52474;52.236;5.114;2023-04-02T04:05:28;101779.94;;;3.66;100.00
59170;BME280;52474;52.236;5.114;2023-04-02T04:08:04;101778.38;;;3.62;100.00
59170;BME280;52474;52.236;5.114;2023-04-02T04:10:31;101775.88;;;3.59;100.00
59170;BME280;52474;52.236;5.114;2023-04-02T04:13:05;101788.31;;;3.54;100.00
59170;BME280;52474;52.236;5.114;2023-04-02T04:15:37;101783.19;;;3.51;100.00
59170;BME280;52474;52.236;5.114;2023-04-02T04:23:35;101802.63;;;3.45;100.00
59170;BME280;52474;52.236;5.114;2023-04-02T04:26:19;101803.44;;;3.47;100.00
59170;BME280;52474;52.236;5.114;2023-04-02T04:29:34;101808.06;;;3.40;100.00
59170;BME280;52474;52.236;5.114;2023-04-02T04:32:14;101804.59;;;3.40;100.00
59170;BME280;52474;52.236;5.114;2023-04-02T04:34:45;101824.13;;;3.31;100.00
59170;BME280;52474;52.236;5.114;2023-04-02T04:37:24;101823.44;;;3.26;100.00
59170;BME280;52474;52.236;5.114;2023-04-02T04:40:10;101804.19;;;3.05;100.00
59170;BME280;52474;52.236;5.114;2023-04-02T04:42:42;101852.13;;;3.29;100.00
59170;BME280;52474;52.236;5.114;2023-04-02T04:45:33;101851.53;;;3.22;100.00
59170;BME280;52474;52.236;5.114;2023-04-02T04:48:07;101857.03;;;3.15;100.00
59170;BME280;52474;52.236;5.114;2023-04-02T04:50:46;101864.88;;;3.15;100.00
59170;BME280;52474;52.236;5.114;2023-04-02T04:53:26;101867.00;;;3.05;100.00
59170;BME280;52474;52.236;5.114;2023-04-02T04:55:56;101875.09;;;2.99;100.00
59170;BME280;52474;52.236;5.114;2023-04-02T04:58:28;101874.56;;;2.89;100.00
59170;BME280;52474;52.236;5.114;2023-04-02T05:06:04;101892.63;;;2.72;100.00
59170;BME280;52474;52.236;5.114;2023-04-02T05:08:35;101899.84;;;2.65;100.00
59170;BME280;52474;52.236;5.114;2023-04-02T05:11:27;101915.00;;;2.55;100.00
59170;BME280;52474;52.236;5.114;2023-04-02T05:13:59;101906.69;;;2.44;100.00
59170;BME280;52474;52.236;5.114;2023-04-02T05:26:32;101926.28;;;2.04;100.00
59170;BME280;52474;52.236;5.114;2023-04-02T05:29:09;101927.47;;;1.96;100.00
59170;BME280;52474;52.236;5.114;2023-04-02T05:31:46;101947.66;;;1.90;100.00
59170;BME280;52474;52.236;5.114;2023-04-02T05:34:22;101944.44;;;1.82;100.00
59170;BME280;52474;52.236;5.114;2023-04-02T05:36:51;101949.72;;;1.79;100.00
59170;BME280;52474;52.236;5.114;2023-04-02T05:39:21;101960.38;;;1.73;100.00
59170;BME280;52474;52.236;5.114;2023-04-02T05:42:17;101975.09;;;1.76;100.00
59170;BME280;52474;52.236;5.114;2023-04-02T05:47:48;101991.47;;;1.81;100.00
59170;BME280;52474;52.236;5.114;2023-04-02T05:53:01;102011.06;;;1.96;100.00
59170;BME280;52474;52.236;5.114;2023-04-02T05:58:34;102014.38;;;2.01;100.00
59170;BME280;52474;52.236;5.114;2023-04-02T06:01:24;102024.66;;;2.07;100.00
59170;BME280;52474;52.236;5.114;2023-04-02T06:04:23;102034.00;;;2.14;100.00
59170;BME280;52474;52.236;5.114;2023-04-02T06:10:06;102052.16;;;2.19;100.00
59170;BME280;52474;52.236;5.114;2023-04-02T06:12:43;102049.41;;;2.23;100.00
59170;BME280;52474;52.236;5.114;2023-04-02T06:15:25;102037.41;;;2.16;100.00
59170;BME280;52474;52.236;5.114;2023-04-02T06:20:29;102056.50;;;2.20;100.00
59170;BME280;52474;52.236;5.114;2023-04-02T06:23:01;102075.88;;;2.41;100.00
59170;BME280;52474;52.236;5.114;2023-04-02T06:25:35;102080.63;;;2.28;100.00
59170;BME280;52474;52.236;5.114;2023-04-02T06:28:07;102087.19;;;2.13;100.00
59170;BME280;52474;52.236;5.114;2023-04-02T06:30:38;102088.88;;;2.14;100.00
59170;BME280;52474;52.236;5.114;2023-04-02T06:33:10;102058.72;;;1.74;100.00
59170;BME280;52474;52.236;5.114;2023-04-02T06:35:41;102110.00;;;2.06;100.00
59170;BME280;52474;52.236;5.114;2023-04-02T06:38:17;102106.44;;;2.09;100.00
59170;BME280;52474;52.236;5.114;2023-04-02T06:41:37;102107.47;;;2.05;100.00
59170;BME280;52474;52.236;5.114;2023-04-02T06:44:01;102118.31;;;2.21;100.00
59170;BME280;52474;52.236;5.114;2023-04-02T06:46:50;102126.19;;;1.89;100.00
59170;BME280;52474;52.236;5.114;2023-04-02T06:52:32;102145.41;;;2.17;100.00
59170;BME280;52474;52.236;5.114;2023-04-02T06:57:49;102161.78;;;2.23;100.00
59170;BME280;52474;52.236;5.114;2023-04-02T07:00:28;102166.13;;;2.24;100.00
59170;BME280;52474;52.236;5.114;2023-04-02T07:02:58;102161.56;;;2.31;100.00
59170;BME280;52474;52.236;5.114;2023-04-02T07:05:26;102169.34;;;2.34;100.00
59170;BME280;52474;52.236;5.114;2023-04-02T07:07:56;102141.78;;;2.22;100.00
59170;BME280;52474;52.236;5.114;2023-04-02T07:10:22;102167.88;;;2.24;100.00
59170;BME280;52474;52.236;5.114;2023-04-02T07:12:47;102165.00;;;2.33;100.00
59170;BME280;52474;52.236;5.114;2023-04-02T07:15:15;102188.13;;;2.47;100.00
59170;BME280;52474;52.236;5.114;2023-04-02T07:17:42;102198.47;;;2.50;100.00
59170;BME280;52474;52.236;5.114;2023-04-02T07:20:29;102195.88;;;2.50;100.00
59170;BME280;52474;52.236;5.114;2023-04-02T07:23:03;102192.53;;;2.15;100.00
59170;BME280;52474;52.236;5.114;2023-04-02T07:25:28;102195.97;;;2.17;100.00
59170;BME280;52474;52.236;5.114;2023-04-02T07:27:55;102215.47;;;2.35;100.00
59170;BME280;52474;52.236;5.114;2023-04-02T07:30:20;102221.06;;;2.52;100.00
59170;BME280;52474;52.236;5.114;2023-04-02T07:32:46;102232.50;;;2.48;100.00
59170;BME280;52474;52.236;5.114;2023-04-02T07:35:13;102220.94;;;2.57;100.00
59170;BME280;52474;52.236;5.114;2023-04-02T07:37:40;102229.03;;;2.48;100.00
59170;BME280;52474;52.236;5.114;2023-04-02T07:40:16;102237.94;;;2.42;100.00
59170;BME280;52474;52.236;5.114;2023-04-02T07:42:43;102217.38;;;2.30;100.00
59170;BME280;52474;52.236;5.114;2023-04-02T07:45:10;102245.59;;;2.48;100.00
59170;BME280;52474;52.236;5.114;2023-04-02T07:47:35;102244.72;;;2.48;100.00
59170;BME280;52474;52.236;5.114;2023-04-02T07:50:02;102234.41;;;2.43;100.00
59170;BME280;52474;52.236;5.114;2023-04-02T07:52:28;102244.03;;;2.41;100.00
59170;BME280;52474;52.236;5.114;2023-04-02T07:54:53;102271.69;;;2.50;100.00
59170;BME280;52474;52.236;5.114;2023-04-02T07:57:20;102254.22;;;2.52;100.00
59170;BME280;52474;52.236;5.114;2023-04-02T07:59:45;102260.56;;;2.43;100.00
59170;BME280;52474;52.236;5.114;2023-04-02T08:02:19;102271.66;;;2.51;100.00
59170;BME280;52474;52.236;5.114;2023-04-02T08:04:48;102270.03;;;2.77;100.00
59170;BME280;52474;52.236;5.114;2023-04-02T08:07:16;102254.31;;;2.78;100.00
59170;BME280;52474;52.236;5.114;2023-04-02T08:09:43;102264.41;;;2.91;100.00
59170;BME280;52474;52.236;5.114;2023-04-02T08:12:12;102276.03;;;3.10;100.00
59170;BME280;52474;52.236;5.114;2023-04-02T08:14:39;102266.94;;;2.92;100.00
59170;BME280;52474;52.236;5.114;2023-04-02T08:17:10;102291.88;;;3.06;100.00
59170;BME280;52474;52.236;5.114;2023-04-02T08:19:36;102294.47;;;3.06;100.00
59170;BME280;52474;52.236;5.114;2023-04-02T08:22:02;102295.44;;;3.58;100.00
59170;BME280;52474;52.236;5.114;2023-04-02T08:24:28;102301.84;;;4.01;100.00
59170;BME280;52474;52.236;5.114;2023-04-02T08:26:53;102299.81;;;4.34;100.00
59170;BME280;52474;52.236;5.114;2023-04-02T08:29:20;102274.19;;;3.67;100.00
59170;BME280;52474;52.236;5.114;2023-04-02T08:31:46;102322.19;;;3.68;100.00
59170;BME280;52474;52.236;5.114;2023-04-02T08:34:11;102319.06;;;4.08;100.00
59170;BME280;52474;52.236;5.114;2023-04-02T08:36:39;102318.25;;;3.54;100.00
59170;BME280;52474;52.236;5.114;2023-04-02T08:39:08;102321.69;;;3.83;100.00
59170;BME280;52474;52.236;5.114;2023-04-02T08:41:46;102320.16;;;3.76;100.00
59170;BME280;52474;52.236;5.114;2023-04-02T08:49:18;102302.78;;;12.21;100.00
59170;BME280;52474;52.236;5.114;2023-04-02T08:51:47;102313.81;;;13.03;100.00
59170;BME280;52474;52.236;5.114;2023-04-02T08:54:20;102306.53;;;17.32;100.00
59170;BME280;52474;52.236;5.114;2023-04-02T08:59:45;102330.94;;;19.55;100.00
59170;BME280;52474;52.236;5.114;2023-04-02T09:04:38;102336.09;;;19.48;100.00
59170;BME280;52474;52.236;5.114;2023-04-02T09:07:11;102344.09;;;20.20;100.00
59170;BME280;52474;52.236;5.114;2023-04-02T09:09:38;102350.84;;;18.99;100.00
59170;BME280;52474;52.236;5.114;2023-04-02T09:12:20;102350.53;;;18.64;100.00
59170;BME280;52474;52.236;5.114;2023-04-02T09:17:21;102356.97;;;16.25;100.00
59170;BME280;52474;52.236;5.114;2023-04-02T09:19:52;102353.06;;;18.29;100.00
59170;BME280;52474;52.236;5.114;2023-04-02T09:22:30;102357.19;;;19.43;93.96
59170;BME280;52474;52.236;5.114;2023-04-02T09:24:59;102364.91;;;21.63;100.00
59170;BME280;52474;52.236;5.114;2023-04-02T09:27:34;102360.03;;;19.42;100.00
59170;BME280;52474;52.236;5.114;2023-04-02T09:33:04;102369.28;;;22.38;99.77
59170;BME280;52474;52.236;5.114;2023-04-02T09:38:25;102380.06;;;20.19;100.00
59170;BME280;52474;52.236;5.114;2023-04-02T09:41:18;102379.97;;;20.55;100.00
59170;BME280;52474;52.236;5.114;2023-04-02T09:43:44;102382.69;;;17.69;100.00
59170;BME280;52474;52.236;5.114;2023-04-02T09:48:58;102392.97;;;18.51;96.00
59170;BME280;52474;52.236;5.114;2023-04-02T09:51:34;102393.06;;;20.06;100.00
59170;BME280;52474;52.236;5.114;2023-04-02T09:56:28;102411.50;;;19.19;100.00
59170;BME280;52474;52.236;5.114;2023-04-02T10:01:35;102403.88;;;22.18;87.54
59170;BME280;52474;52.236;5.114;2023-04-02T10:04:04;102411.97;;;22.26;84.51
59170;BME280;52474;52.236;5.114;2023-04-02T10:06:32;102410.22;;;20.49;92.52
59170;BME280;52474;52.236;5.114;2023-04-02T10:09:26;102396.00;;;15.96;99.57
59170;BME280;52474;52.236;5.114;2023-04-02T10:11:54;102412.00;;;17.41;100.00
59170;BME280;52474;52.236;5.114;2023-04-02T10:14:27;102415.69;;;19.77;96.49
59170;BME280;52474;52.236;5.114;2023-04-02T10:17:24;102419.97;;;20.50;79.50
59170;BME280;52474;52.236;5.114;2023-04-02T10:19:57;102418.69;;;20.80;82.95
59170;BME280;52474;52.236;5.114;2023-04-02T10:22:28;102431.88;;;22.34;79.63
59170;BME280;52474;52.236;5.114;2023-04-02T10:24:57;102415.41;;;20.68;86.64
59170;BME280;52474;52.236;5.114;2023-04-02T10:27:32;102421.66;;;18.98;85.88
59170;BME280;52474;52.236;5.114;2023-04-02T10:40:46;102438.94;;;21.27;73.53
59170;BME280;52474;52.236;5.114;2023-04-02T10:43:53;102445.81;;;21.80;80.84
59170;BME280;52474;52.236;5.114;2023-04-02T10:49:19;102446.09;;;21.44;72.23
59170;BME280;52474;52.236;5.114;2023-04-02T10:51:56;102456.75;;;18.77;74.68
59170;BME280;52474;52.236;5.114;2023-04-02T11:00:04;102449.19;;;18.90;75.79
59170;BME280;52474;52.236;5.114;2023-04-02T11:02:55;102453.50;;;18.73;80.05
59170;BME280;52474;52.236;5.114;2023-04-02T11:10:43;102460.38;;;20.76;75.94
59170;BME280;52474;52.236;5.114;2023-04-02T11:14:00;102457.94;;;21.68;75.73
59170;BME280;52474;52.236;5.114;2023-04-02T11:16:01;102456.59;;;21.72;74.01
59170;BME280;52474;52.236;5.114;2023-04-02T11:18:30;102471.75;;;21.64;72.50
59170;BME280;52474;52.236;5.114;2023-04-02T11:23:33;102461.94;;;19.99;77.49
59170;BME280;52474;52.236;5.114;2023-04-02T11:26:35;102475.88;;;20.82;78.32
59170;BME280;52474;52.236;5.114;2023-04-02T11:29:26;102486.03;;;20.62;79.32
59170;BME280;52474;52.236;5.114;2023-04-02T11:42:37;102497.28;;;18.74;77.46
59170;BME280;52474;52.236;5.114;2023-04-02T11:50:28;102504.31;;;19.31;79.34
59170;BME280;52474;52.236;5.114;2023-04-02T11:53:19;102509.94;;;20.47;78.76
59170;BME280;52474;52.236;5.114;2023-04-02T12:02:01;102523.09;;;21.47;67.53
59170;BME280;52474;52.236;5.114;2023-04-02T12:07:20;102527.63;;;18.74;81.19
59170;BME280;52474;52.236;5.114;2023-04-02T12:09:57;102525.38;;;19.64;77.48
59170;BME280;52474;52.236;5.114;2023-04-02T12:14:58;102520.19;;;20.44;72.19
59170;BME280;52474;52.236;5.114;2023-04-02T12:17:31;102508.88;;;20.58;77.37
59170;BME280;52474;52.236;5.114;2023-04-02T12:20:20;102528.34;;;17.98;79.92
59170;BME280;52474;52.236;5.114;2023-04-02T12:22:51;102524.56;;;19.26;75.28
59170;BME280;52474;52.236;5.114;2023-04-02T12:25:34;102528.19;;;19.72;69.77
59170;BME280;52474;52.236;5.114;2023-04-02T12:30:35;102535.56;;;18.56;73.77
59170;BME280;52474;52.236;5.114;2023-04-02T12:33:27;102540.34;;;16.17;91.54
59170;BME280;52474;52.236;5.114;2023-04-02T12:35:59;102505.16;;;14.41;96.57
59170;BME280;52474;52.236;5.114;2023-04-02T12:38:28;102542.50;;;14.76;100.00
59170;BME280;52474;52.236;5.114;2023-04-02T12:41:24;102535.56;;;12.62;100.00
59170;BME280;52474;52.236;5.114;2023-04-02T12:44:05;102543.91;;;13.86;100.00
59170;BME280;52474;52.236;5.114;2023-04-02T12:46:38;102537.88;;;13.95;100.00
59170;BME280;52474;52.236;5.114;2023-04-02T12:49:13;102534.84;;;13.75;100.00
59170;BME280;52474;52.236;5.114;2023-04-02T12:51:45;102556.00;;;13.40;100.00
59170;BME280;52474;52.236;5.114;2023-04-02T12:54:16;102526.59;;;13.91;100.00
59170;BME280;52474;52.236;5.114;2023-04-02T12:56:47;102550.16;;;13.85;100.00
59170;BME280;52474;52.236;5.114;2023-04-02T13:02:00;102556.28;;;13.23;100.00
59170;BME280;52474;52.236;5.114;2023-04-02T13:04:27;102560.63;;;13.24;100.00
59170;BME280;52474;52.236;5.114;2023-04-02T13:06:54;102559.97;;;13.84;100.00
59170;BME280;52474;52.236;5.114;2023-04-02T13:11:56;102558.09;;;12.57;100.00
59170;BME280;52474;52.236;5.114;2023-04-02T13:14:26;102561.16;;;13.03;100.00
59170;BME280;52474;52.236;5.114;2023-04-02T13:16:52;102519.50;;;12.11;100.00
59170;BME280;52474;52.236;5.114;2023-04-02T13:19:44;102553.63;;;12.57;100.00
59170;BME280;52474;52.236;5.114;2023-04-02T13:22:33;102553.44;;;12.60;100.00
59170;BME280;52474;52.236;5.114;2023-04-02T13:25:03;102564.16;;;12.05;100.00
59170;BME280;52474;52.236;5.114;2023-04-02T13:27:29;102562.66;;;12.55;100.00
59170;BME280;52474;52.236;5.114;2023-04-02T13:30:22;102564.28;;;13.36;100.00
59170;BME280;52474;52.236;5.114;2023-04-02T13:32:48;102565.56;;;12.10;100.00
59170;BME280;52474;52.236;5.114;2023-04-02T13:35:14;102563.88;;;12.36;100.00
59170;BME280;52474;52.236;5.114;2023-04-02T13:37:42;102576.31;;;12.09;100.00
59170;BME280;52474;52.236;5.114;2023-04-02T13:40:13;102573.38;;;11.70;100.00
59170;BME280;52474;52.236;5.114;2023-04-02T13:42:41;102570.28;;;12.19;100.00
59170;BME280;52474;52.236;5.114;2023-04-02T13:45:19;102580.56;;;12.11;100.00
59170;BME280;52474;52.236;5.114;2023-04-02T13:47:54;102578.47;;;12.43;100.00
59170;BME280;52474;52.236;5.114;2023-04-02T13:50:27;102584.03;;;12.93;100.00
59170;BME280;52474;52.236;5.114;2023-04-02T13:53:04;102580.84;;;13.26;100.00
59170;BME280;52474;52.236;5.114;2023-04-02T13:55:36;102586.72;;;13.19;100.00
59170;BME280;52474;52.236;5.114;2023-04-02T13:58:07;102578.25;;;12.74;100.00
59170;BME280;52474;52.236;5.114;2023-04-02T14:00:46;102566.16;;;12.01;100.00
59170;BME280;52474;52.236;5.114;2023-04-02T14:03:46;102598.78;;;11.46;100.00
59170;BME280;52474;52.236;5.114;2023-04-02T14:09:14;102597.16;;;12.15;100.00
59170;BME280;52474;52.236;5.114;2023-04-02T14:17:10;102602.66;;;11.40;100.00
59170;BME280;52474;52.236;5.114;2023-04-02T14:22:40;102588.66;;;11.52;100.00
59170;BME280;52474;52.236;5.114;2023-04-02T14:31:20;102611.19;;;11.31;100.00
59170;BME280;52474;52.236;5.114;2023-04-02T14:42:11;102619.69;;;10.61;100.00
59170;BME280;52474;52.236;5.114;2023-04-02T14:45:00;102629.84;;;10.69;100.00
59170;BME280;52474;52.236;5.114;2023-04-02T14:47:44;102620.09;;;11.00;100.00
59170;BME280;52474;52.236;5.114;2023-04-02T14:50:20;102625.97;;;11.05;100.00
59170;BME280;52474;52.236;5.114;2023-04-02T14:52:56;102625.66;;;10.95;100.00
59170;BME280;52474;52.236;5.114;2023-04-02T14:55:33;102630.53;;;11.03;100.00
59170;BME280;52474;52.236;5.114;2023-04-02T14:58:02;102621.88;;;11.29;100.00
59170;BME280;52474;52.236;5.114;2023-04-02T15:00:40;102627.44;;;11.25;100.00
59170;BME280;52474;52.236;5.114;2023-04-02T15:03:09;102639.22;;;10.90;100.00
59170;BME280;52474;52.236;5.114;2023-04-02T15:05:43;102643.75;;;10.88;100.00
59170;BME280;52474;52.236;5.114;2023-04-02T15:13:18;102627.19;;;10.69;100.00
59170;BME280;52474;52.236;5.114;2023-04-02T15:15:51;102642.84;;;10.58;100.00
59170;BME280;52474;52.236;5.114;2023-04-02T15:18:21;102606.00;;;10.05;100.00
59170;BME280;52474;52.236;5.114;2023-04-02T15:35:34;102654.28;;;10.26;100.00
59170;BME280;52474;52.236;5.114;2023-04-02T15:38:24;102637.75;;;10.05;100.00
59170;BME280;52474;52.236;5.114;2023-04-02T15:46:53;102656.88;;;9.95;100.00
59170;BME280;52474;52.236;5.114;2023-04-02T15:54:57;102659.16;;;9.85;100.00
59170;BME280;52474;52.236;5.114;2023-04-02T15:58:04;102665.19;;;9.71;100.00
59170;BME280;52474;52.236;5.114;2023-04-02T16:03:22;102679.59;;;9.65;100.00
59170;BME280;52474;52.236;5.114;2023-04-02T16:06:26;102676.19;;;9.79;100.00
59170;BME280;52474;52.236;5.114;2023-04-02T16:09:34;102678.00;;;9.79;100.00
59170;BME280;52474;52.236;5.114;2023-04-02T16:12:17;102672.13;;;9.56;100.00
59170;BME280;52474;52.236;5.114;2023-04-02T16:14:46;102673.22;;;9.52;100.00
59170;BME280;52474;52.236;5.114;2023-04-02T16:17:20;102689.84;;;9.54;100.00
59170;BME280;52474;52.236;5.114;2023-04-02T16:20:21;102676.88;;;9.50;100.00
59170;BME280;52474;52.236;5.114;2023-04-02T16:22:52;102684.34;;;9.41;100.00
59170;BME280;52474;52.236;5.114;2023-04-02T16:25:24;102693.50;;;9.52;100.00
59170;BME280;52474;52.236;5.114;2023-04-02T16:28:07;102691.88;;;9.49;100.00
59170;BME280;52474;52.236;5.114;2023-04-02T16:36:17;102702.78;;;9.43;100.00
59170;BME280;52474;52.236;5.114;2023-04-02T16:39:00;102690.09;;;9.32;100.00
59170;BME280;52474;52.236;5.114;2023-04-02T16:42:00;102727.34;;;9.28;100.00
59170;BME280;52474;52.236;5.114;2023-04-02T16:50:38;102718.94;;;9.72;100.00
59170;BME280;52474;52.236;5.114;2023-04-02T17:10:18;102764.09;;;8.59;100.00
59170;BME280;52474;52.236;5.114;2023-04-02T17:12:59;102735.06;;;8.39;100.00
59170;BME280;52474;52.236;5.114;2023-04-02T17:15:32;102716.38;;;8.25;100.00
59170;BME280;52474;52.236;5.114;2023-04-02T17:18:00;102778.88;;;8.45;100.00
59170;BME280;52474;52.236;5.114;2023-04-02T17:20:27;102706.44;;;8.11;100.00
59170;BME280;52474;52.236;5.114;2023-04-02T17:22:54;102767.03;;;8.33;100.00
59170;BME280;52474;52.236;5.114;2023-04-02T17:25:51;102782.13;;;8.29;100.00
59170;BME280;52474;52.236;5.114;2023-04-02T17:28:23;102776.28;;;8.23;100.00
59170;BME280;52474;52.236;5.114;2023-04-02T17:30:54;102786.25;;;8.16;100.00
59170;BME280;52474;52.236;5.114;2023-04-02T17:33:21;102776.28;;;8.02;100.00
59170;BME280;52474;52.236;5.114;2023-04-02T17:35:53;102768.06;;;7.89;100.00
59170;BME280;52474;52.236;5.114;2023-04-02T17:41:06;102730.34;;;7.46;100.00
59170;BME280;52474;52.236;5.114;2023-04-02T17:43:57;102804.84;;;7.72;100.00
59170;BME280;52474;52.236;5.114;2023-04-02T17:46:38;102804.19;;;7.67;100.00
59170;BME280;52474;52.236;5.114;2023-04-02T17:49:23;102811.63;;;7.57;100.00
59170;BME280;52474;52.236;5.114;2023-04-02T18:08:07;102833.69;;;7.10;100.00
59170;BME280;52474;52.236;5.114;2023-04-02T18:10:51;102838.59;;;6.98;100.00
59170;BME280;52474;52.236;5.114;2023-04-02T18:16:34;102842.81;;;6.78;100.00
59170;BME280;52474;52.236;5.114;2023-04-02T18:24:36;102850.88;;;6.50;100.00
59170;BME280;52474;52.236;5.114;2023-04-02T18:27:26;102853.16;;;6.36;100.00
59170;BME280;52474;52.236;5.114;2023-04-02T18:33:24;102873.72;;;6.24;100.00